Time;durP1;ratioP1;P1;durP2;ratioP2;P2;SDS_P1;SDS_P2;PMS_P1;PMS_P2;Temp;Humidity;BMP_temperature;BMP_pressure;BME280_temperature;BME280_humidity;BME280_pressure;Samples;Min_cycle;Max_cycle;Signal;HPM_P1;HPM_P2
2022/09/27 00:00:27;;;;;;;2.83;1.80;;;15.60;38.80;;;;;;10502625;28;20249;-69
2022/09/27 00:05:30;;;;;;;2.50;1.50;;;15.60;38.90;;;;;;10509554;28;20285;-69
2022/09/27 00:10:33;;;;;;;1.60;1.50;;;15.60;39.10;;;;;;10503122;28;20224;-70
2022/09/27 00:15:38;;;;;;;1.60;1.40;;;15.60;39.00;;;;;;10503633;28;20230;-70
2022/09/27 00:20:41;;;;;;;1.50;1.40;;;15.60;39.40;;;;;;10502694;28;20259;-70
2022/09/27 00:25:55;;;;;;;1.90;1.70;;;15.50;39.30;;;;;;10502127;28;20228;-70
2022/09/27 00:31:00;;;;;;;1.43;1.30;;;15.50;39.90;;;;;;10504663;28;20359;-70
2022/09/27 00:36:05;;;;;;;1.27;1.27;;;15.40;39.90;;;;;;10504174;28;20624;-71
2022/09/27 00:41:13;;;;;;;1.70;1.60;;;15.40;39.80;;;;;;10502173;28;20227;-70
2022/09/27 00:46:26;;;;;;;2.30;1.50;;;15.30;39.90;;;;;;10499925;28;20361;-70
2022/09/27 00:51:30;;;;;;;2.00;1.80;;;15.30;40.50;;;;;;10504943;28;20311;-70
2022/09/27 00:56:35;;;;;;;1.57;1.47;;;15.20;40.10;;;;;;10502038;28;20224;-70
2022/09/27 01:01:40;;;;;;;2.23;1.57;;;15.20;40.30;;;;;;10503909;28;20639;-70
2022/09/27 01:06:44;;;;;;;1.40;1.30;;;15.10;40.60;;;;;;10500634;28;20216;-70
2022/09/27 01:11:57;;;;;;;1.77;1.67;;;15.10;40.50;;;;;;10500483;28;20767;-70
2022/09/27 01:17:12;;;;;;;1.80;1.70;;;15.00;41.30;;;;;;10500772;28;20224;-70
2022/09/27 01:22:21;;;;;;;1.37;1.27;;;14.90;41.60;;;;;;10503089;28;20499;-70
2022/09/27 01:28:01;;;;;;;1.97;1.50;;;14.90;41.30;;;;;;10501456;28;20236;-70
2022/09/27 01:33:23;;;;;;;2.00;1.70;;;14.90;42.10;;;;;;10500899;28;20286;-70
2022/09/27 01:38:35;;;;;;;1.90;1.80;;;14.80;41.90;;;;;;10508356;28;20728;-74
2022/09/27 01:43:44;;;;;;;2.60;1.70;;;14.80;42.10;;;;;;10503434;28;20285;-73
2022/09/27 01:48:51;;;;;;;2.43;1.93;;;14.80;42.30;;;;;;10516305;28;20235;-74
2022/09/27 01:53:59;;;;;;;2.60;2.40;;;14.80;42.20;;;;;;10514282;28;20219;-73
2022/09/27 01:59:09;;;;;;;3.23;2.07;;;14.80;42.20;;;;;;10505515;28;20232;-73
2022/09/27 02:04:19;;;;;;;2.87;1.80;;;14.80;42.30;;;;;;10513842;28;20234;-73
2022/09/27 02:09:27;;;;;;;1.67;1.50;;;14.80;42.20;;;;;;10508808;28;20296;-73
2022/09/27 02:14:34;;;;;;;2.60;1.33;;;14.70;41.90;;;;;;10506722;28;20231;-73
2022/09/27 02:19:51;;;;;;;1.50;1.33;;;14.70;42.00;;;;;;10511300;28;20685;-73
2022/09/27 02:24:59;;;;;;;1.20;1.10;;;14.50;42.80;;;;;;10509067;28;20268;-73
2022/09/27 02:30:06;;;;;;;0.90;0.90;;;14.50;42.80;;;;;;10513444;28;20223;-72
2022/09/27 02:35:15;;;;;;;0.90;0.80;;;14.40;42.70;;;;;;10505871;28;20257;-73
2022/09/27 02:40:18;;;;;;;0.80;0.80;;;14.30;42.80;;;;;;10512403;28;20235;-72
2022/09/27 02:45:23;;;;;;;1.10;0.80;;;14.30;42.20;;;;;;10511944;28;20633;-73
2022/09/27 02:50:57;;;;;;;1.63;0.90;;;14.30;42.30;;;;;;10509457;28;20235;-73
2022/09/27 02:56:09;;;;;;;1.00;1.00;;;14.20;43.60;;;;;;10506767;28;20228;-73
2022/09/27 03:01:16;;;;;;;0.90;0.90;;;14.10;43.60;;;;;;10502629;28;20236;-73
2022/09/27 03:06:23;;;;;;;0.93;0.90;;;14.10;43.20;;;;;;10510526;28;20304;-73
2022/09/27 03:11:27;;;;;;;0.93;0.83;;;14.00;43.40;;;;;;10508682;28;20672;-73
2022/09/27 03:16:30;;;;;;;1.37;0.90;;;14.10;43.10;;;;;;10506773;28;20285;-73
2022/09/27 03:21:35;;;;;;;0.80;0.80;;;14.00;43.40;;;;;;10505353;28;20247;-73
2022/09/27 03:26:38;;;;;;;0.80;0.80;;;13.90;43.40;;;;;;10504424;28;20273;-73
2022/09/27 03:31:41;;;;;;;1.57;0.97;;;13.90;43.40;;;;;;10507130;28;20240;-73
2022/09/27 03:36:46;;;;;;;0.97;0.90;;;13.90;43.40;;;;;;10508700;28;20227;-73
2022/09/27 03:41:49;;;;;;;0.90;0.90;;;13.90;43.40;;;;;;10511399;28;20227;-73
2022/09/27 03:46:52;;;;;;;1.33;1.00;;;13.90;43.40;;;;;;10507323;28;20635;-73
2022/09/27 03:51:57;;;;;;;0.80;0.80;;;13.80;43.30;;;;;;10509382;28;20652;-73
2022/09/27 03:57:00;;;;;;;1.63;1.00;;;13.80;44.00;;;;;;10512669;28;20265;-73
2022/09/27 04:02:03;;;;;;;0.90;0.90;;;13.80;43.50;;;;;;10508629;28;20216;-72
2022/09/27 04:07:08;;;;;;;0.90;0.90;;;13.90;43.40;;;;;;10504835;28;20232;-72
2022/09/27 04:12:12;;;;;;;1.10;1.00;;;13.90;44.00;;;;;;10498228;28;20243;-73
2022/09/27 04:17:15;;;;;;;1.30;1.20;;;13.90;43.40;;;;;;10508623;28;20228;-72
2022/09/27 04:22:20;;;;;;;1.10;1.00;;;13.90;43.40;;;;;;10504799;28;20232;-73
2022/09/27 04:27:23;;;;;;;1.00;1.00;;;13.90;44.10;;;;;;10511854;28;20280;-73
2022/09/27 04:32:26;;;;;;;1.17;0.90;;;13.90;44.30;;;;;;10503504;28;20240;-73
2022/09/27 04:37:31;;;;;;;1.00;1.00;;;13.90;43.70;;;;;;10510027;28;20232;-73
2022/09/27 04:42:35;;;;;;;1.20;0.90;;;13.90;44.20;;;;;;10501815;28;20232;-73
2022/09/27 04:47:42;;;;;;;2.23;1.13;;;13.90;43.60;;;;;;10501725;28;20250;-74
2022/09/27 04:52:50;;;;;;;0.90;0.90;;;13.80;44.60;;;;;;10504304;28;20641;-73
2022/09/27 04:57:54;;;;;;;0.90;0.90;;;13.80;44.80;;;;;;10505164;28;20228;-73
2022/09/27 05:02:57;;;;;;;2.13;1.10;;;13.90;44.10;;;;;;10507812;28;20269;-73
2022/09/27 05:08:02;;;;;;;1.00;1.00;;;13.90;43.90;;;;;;10502196;28;20718;-73
2022/09/27 05:13:06;;;;;;;1.10;1.00;;;14.00;44.30;;;;;;10501342;28;20227;-74
2022/09/27 05:18:09;;;;;;;0.90;0.90;;;14.00;43.60;;;;;;10506662;28;20277;-70
2022/09/27 05:23:14;;;;;;;1.57;1.30;;;14.00;43.80;;;;;;10505493;28;20227;-74
2022/09/27 05:28:17;;;;;;;1.23;1.10;;;14.10;44.30;;;;;;10501473;28;20224;-73
2022/09/27 05:33:20;;;;;;;1.10;1.10;;;14.10;43.60;;;;;;10497281;28;20224;-73
2022/09/27 05:38:25;;;;;;;0.97;0.80;;;14.20;43.60;;;;;;10504075;28;20356;-73
2022/09/27 05:43:28;;;;;;;0.93;0.80;;;14.10;43.70;;;;;;10502622;28;20232;-73
2022/09/27 05:48:31;;;;;;;0.60;0.60;;;14.10;43.60;;;;;;10501058;28;20224;-73
2022/09/27 05:53:36;;;;;;;0.70;0.70;;;14.10;43.60;;;;;;10504394;28;20212;-73
2022/09/27 05:58:40;;;;;;;0.90;0.77;;;14.10;43.60;;;;;;10507283;28;20719;-73
2022/09/27 06:03:45;;;;;;;2.10;0.90;;;14.00;43.40;;;;;;10505609;28;20280;-73
2022/09/27 06:08:50;;;;;;;1.03;0.93;;;13.90;43.40;;;;;;10503017;28;20239;-73
2022/09/27 06:13:53;;;;;;;1.00;0.80;;;13.80;43.70;;;;;;10506112;28;20215;-73
2022/09/27 06:18:56;;;;;;;0.90;0.90;;;13.80;43.30;;;;;;10506318;28;20228;-73
2022/09/27 06:24:01;;;;;;;1.80;0.93;;;13.80;43.30;;;;;;10505330;28;20277;-73
2022/09/27 06:29:05;;;;;;;2.50;2.00;;;13.80;44.00;;;;;;10498902;28;20290;-72
2022/09/27 06:34:08;;;;;;;1.33;1.20;;;13.80;43.30;;;;;;10510926;28;20317;-73
2022/09/27 06:39:12;;;;;;;1.20;1.10;;;13.80;43.30;;;;;;10504902;28;20581;-73
2022/09/27 06:44:16;;;;;;;1.30;1.20;;;13.70;43.20;;;;;;10514309;28;20714;-73
2022/09/27 06:49:21;;;;;;;1.60;1.10;;;13.60;43.10;;;;;;10512582;28;20228;-73
2022/09/27 06:54:26;;;;;;;2.13;1.20;;;13.60;43.10;;;;;;10511387;28;20276;-73
2022/09/27 07:05:03;;;;;;;1.70;1.60;;;13.60;43.20;;;;;;10458187;28;20224;-73
2022/09/27 07:10:08;;;;;;;2.67;0.90;;;13.70;43.60;;;;;;10512695;28;20675;-73
2022/09/27 07:15:12;;;;;;;1.77;1.27;;;13.70;44.00;;;;;;10509807;28;20566;-72
2022/09/27 07:20:15;;;;;;;1.23;0.90;;;13.80;43.30;;;;;;10511998;28;20227;-73
2022/09/27 07:25:22;;;;;;;1.60;1.00;;;13.90;43.40;;;;;;10513952;28;20339;-72
2022/09/27 07:30:25;;;;;;;1.83;1.10;;;13.90;43.90;;;;;;10511360;28;20282;-73
2022/09/27 07:35:29;;;;;;;1.50;1.40;;;14.00;44.10;;;;;;10510126;28;20220;-73
2022/09/27 07:40:33;;;;;;;1.73;1.40;;;14.10;44.20;;;;;;10506140;28;20631;-73
2022/09/27 07:45:37;;;;;;;1.20;1.10;;;14.30;44.10;;;;;;10510695;28;20303;-73
2022/09/27 07:50:40;;;;;;;1.60;1.20;;;14.40;43.80;;;;;;10504204;28;20221;-73
2022/09/27 07:55:49;;;;;;;1.07;0.97;;;14.50;43.90;;;;;;10505923;28;20276;-72
2022/09/27 08:00:53;;;;;;;2.03;0.90;;;14.50;43.90;;;;;;10506761;28;20239;-73
2022/09/27 08:05:56;;;;;;;1.87;1.10;;;14.50;43.90;;;;;;10508046;28;20219;-73
2022/09/27 08:11:01;;;;;;;1.83;1.10;;;14.50;43.50;;;;;;10508910;28;20281;-73
2022/09/27 08:16:05;;;;;;;1.10;1.00;;;14.50;43.90;;;;;;10505983;28;20761;-73
2022/09/27 08:21:08;;;;;;;2.27;1.20;;;14.50;43.90;;;;;;10505134;28;20232;-73
2022/09/27 08:26:12;;;;;;;1.37;1.00;;;14.60;43.80;;;;;;10509164;28;20231;-73
2022/09/27 08:31:16;;;;;;;1.60;1.00;;;14.70;43.50;;;;;;10502359;28;20239;-72
2022/09/27 08:36:20;;;;;;;1.30;0.90;;;14.60;43.10;;;;;;10505996;28;20266;-73
2022/09/27 08:41:35;;;;;;;1.90;0.93;;;14.60;43.00;;;;;;10502506;28;20239;-73
2022/09/27 08:46:45;;;;;;;1.00;0.90;;;14.50;43.10;;;;;;10509508;28;20228;-73
2022/09/27 08:51:52;;;;;;;0.90;0.80;;;14.60;43.40;;;;;;10511826;28;20700;-73
2022/09/27 08:57:02;;;;;;;1.77;0.80;;;14.60;43.00;;;;;;10505574;28;20216;-73
2022/09/27 09:02:16;;;;;;;0.93;0.93;;;14.60;42.60;;;;;;10509397;28;20285;-73
2022/09/27 09:07:42;;;;;;;1.60;0.90;;;14.60;42.50;;;;;;10503176;28;20635;-73
2022/09/27 09:12:53;;;;;;;1.67;1.10;;;14.60;42.90;;;;;;10504002;28;20227;-73
2022/09/27 09:18:09;;;;;;;0.80;0.80;;;14.60;43.00;;;;;;10507324;28;20912;-73
2022/09/27 09:23:39;;;;;;;1.13;1.03;;;14.60;42.80;;;;;;10505837;28;20223;-72
2022/09/27 09:29:00;;;;;;;1.80;0.90;;;14.70;42.40;;;;;;10506826;28;20224;-73
2022/09/27 09:34:10;;;;;;;0.70;0.67;;;14.70;42.50;;;;;;10501953;28;20231;-72
2022/09/27 09:39:18;;;;;;;0.80;0.80;;;14.70;42.90;;;;;;10506559;28;20259;-73
2022/09/27 09:44:27;;;;;;;1.13;0.80;;;14.70;42.70;;;;;;10506670;28;20272;-73
2022/09/27 09:49:35;;;;;;;0.60;0.60;;;14.70;42.80;;;;;;10501152;28;20242;-73
2022/09/27 09:54:43;;;;;;;1.80;1.60;;;14.70;42.30;;;;;;10503369;28;20227;-73
2022/09/27 09:59:53;;;;;;;1.20;0.83;;;14.70;42.80;;;;;;10498695;28;20224;-73
2022/09/27 10:04:56;;;;;;;1.07;0.83;;;14.80;42.90;;;;;;10504500;28;20228;-74
2022/09/27 10:10:01;;;;;;;1.03;0.80;;;14.80;42.40;;;;;;10512465;28;20235;-74
2022/09/27 10:15:07;;;;;;;0.90;0.70;;;14.80;42.60;;;;;;10516275;28;20231;-74
2022/09/27 10:20:21;;;;;;;0.73;0.60;;;14.70;42.80;;;;;;10508614;28;20231;-74
2022/09/27 10:25:26;;;;;;;0.50;0.50;;;14.60;42.90;;;;;;10506952;28;20227;-74
2022/09/27 10:30:33;;;;;;;0.70;0.50;;;14.60;43.80;;;;;;10509931;28;20219;-74
2022/09/27 10:35:40;;;;;;;1.07;0.60;;;14.70;43.30;;;;;;10507035;28;20281;-74
2022/09/27 10:40:45;;;;;;;0.80;0.50;;;14.90;43.30;;;;;;10502632;28;20220;-74
2022/09/27 10:45:50;;;;;;;0.50;0.50;;;15.00;43.10;;;;;;10509995;28;20564;-74
2022/09/27 10:50:59;;;;;;;0.50;0.50;;;15.00;41.50;;;;;;10504195;28;20632;-74
2022/09/27 10:56:03;;;;;;;0.50;0.50;;;15.00;40.70;;;;;;10505369;28;20208;-73
2022/09/27 11:01:11;;;;;;;0.50;0.50;;;15.00;40.90;;;;;;10507594;28;20726;-74
2022/09/27 11:06:30;;;;;;;0.60;0.60;;;15.00;40.30;;;;;;10506927;28;20223;-74
2022/09/27 11:11:34;;;;;;;1.00;0.50;;;15.10;39.50;;;;;;10507720;28;20337;-74
2022/09/27 11:16:57;;;;;;;0.60;0.60;;;15.10;41.20;;;;;;10499390;28;20220;-73
2022/09/27 11:22:09;;;;;;;0.63;0.60;;;15.30;41.50;;;;;;10501922;28;20636;-74
2022/09/27 11:27:23;;;;;;;0.53;0.53;;;15.50;40.00;;;;;;10500892;28;20316;-73
2022/09/27 11:32:40;;;;;;;0.70;0.70;;;15.70;40.60;;;;;;10500331;28;20288;-73
2022/09/27 11:37:52;;;;;;;0.70;0.70;;;15.80;40.30;;;;;;10501552;28;20266;-73
2022/09/27 11:43:10;;;;;;;0.50;0.50;;;16.00;40.30;;;;;;10504600;28;20623;-73
2022/09/27 11:48:27;;;;;;;0.70;0.60;;;16.10;39.20;;;;;;10505604;28;20235;-74
2022/09/27 11:53:50;;;;;;;1.37;0.60;;;16.30;39.80;;;;;;10502227;28;20223;-74
2022/09/27 11:59:05;;;;;;;0.50;0.50;;;16.40;37.50;;;;;;10503086;28;20271;-73
2022/09/27 12:04:34;;;;;;;0.60;0.60;;;16.40;37.40;;;;;;10506151;28;20285;-74
2022/09/27 12:09:42;;;;;;;0.63;0.63;;;16.30;36.40;;;;;;10506826;28;20274;-74
2022/09/27 12:14:49;;;;;;;0.67;0.40;;;16.00;37.60;;;;;;10506526;28;20239;-74
2022/09/27 12:19:57;;;;;;;0.43;0.43;;;15.60;38.40;;;;;;10507907;28;20353;-74
2022/09/27 12:25:02;;;;;;;3.27;0.87;;;15.30;39.50;;;;;;10507442;28;20216;-74
2022/09/27 12:30:06;;;;;;;0.60;0.60;;;15.20;39.60;;;;;;10504958;28;20232;-73
2022/09/27 12:35:18;;;;;;;1.00;0.80;;;15.10;40.10;;;;;;10508470;28;21121;-73
2022/09/27 12:40:25;;;;;;;1.60;1.37;;;15.10;40.40;;;;;;10503023;28;20289;-73
2022/09/27 12:45:41;;;;;;;1.33;0.93;;;15.10;40.30;;;;;;10502651;28;20689;-73
2022/09/27 12:50:50;;;;;;;0.83;0.70;;;15.20;39.90;;;;;;10508471;28;20227;-73
2022/09/27 12:56:09;;;;;;;1.97;1.20;;;15.30;39.90;;;;;;10506418;28;20219;-73
2022/09/27 13:01:26;;;;;;;0.87;0.87;;;15.40;39.60;;;;;;10505699;28;20223;-72
2022/09/27 13:06:48;;;;;;;1.07;0.90;;;15.50;39.80;;;;;;10503021;28;20216;-72
2022/09/27 13:12:00;;;;;;;2.30;0.90;;;15.60;39.20;;;;;;10501834;28;20219;-72
2022/09/27 13:17:03;;;;;;;1.83;1.10;;;15.60;38.90;;;;;;10503722;28;20243;-72
2022/09/27 13:22:09;;;;;;;1.00;0.77;;;15.50;39.60;;;;;;10507190;28;20880;-72
2022/09/27 13:27:41;;;;;;;0.80;0.80;;;15.50;39.40;;;;;;10503068;28;20235;-72
2022/09/27 13:33:25;;;;;;;2.33;0.97;;;15.60;38.70;;;;;;10504447;28;20590;-72
2022/09/27 13:38:30;;;;;;;1.37;1.00;;;15.70;37.90;;;;;;10503981;28;20290;-68
2022/09/27 13:43:51;;;;;;;1.63;0.87;;;15.80;39.30;;;;;;10504701;28;20615;-68
2022/09/27 13:48:59;;;;;;;1.00;0.70;;;15.90;37.60;;;;;;10511787;28;20230;-68
2022/09/27 13:54:06;;;;;;;2.00;0.80;;;16.00;37.90;;;;;;10509954;28;20211;-69
2022/09/27 13:59:17;;;;;;;1.40;0.90;;;16.00;37.70;;;;;;10510200;28;20232;-68
2022/09/27 14:04:24;;;;;;;1.33;0.80;;;16.00;38.20;;;;;;10509107;28;20326;-69
2022/09/27 14:09:32;;;;;;;0.70;0.70;;;16.00;38.30;;;;;;10511343;28;20239;-70
2022/09/27 14:14:36;;;;;;;0.70;0.70;;;16.10;38.30;;;;;;10510557;28;20639;-70
2022/09/27 14:19:42;;;;;;;0.70;0.70;;;16.30;38.90;;;;;;10507888;28;20604;-70
2022/09/27 14:24:49;;;;;;;0.70;0.70;;;16.40;38.20;;;;;;10514285;28;20773;-69
2022/09/27 14:29:55;;;;;;;0.80;0.80;;;16.50;37.50;;;;;;10507846;28;20216;-70
2022/09/27 14:40:37;;;;;;;2.27;1.73;;;16.50;37.00;;;;;;10501454;28;20731;-70
2022/09/27 14:45:41;;;;;;;1.20;1.00;;;16.50;37.40;;;;;;10506694;28;20236;-70
2022/09/27 14:50:55;;;;;;;1.00;1.00;;;16.50;37.80;;;;;;10513193;28;20811;-70
2022/09/27 14:56:07;;;;;;;1.73;1.20;;;16.40;37.20;;;;;;10506371;28;20230;-70
2022/09/27 15:01:16;;;;;;;1.50;0.90;;;16.40;37.70;;;;;;10505770;28;20274;-70
2022/09/27 15:06:20;;;;;;;0.70;0.70;;;16.40;36.80;;;;;;10509761;28;20303;-70
2022/09/27 15:11:25;;;;;;;0.70;0.70;;;16.30;37.50;;;;;;10506414;28;20228;-70
2022/09/27 15:16:28;;;;;;;1.17;0.70;;;16.20;36.60;;;;;;10507636;28;20281;-69
2022/09/27 15:21:33;;;;;;;1.43;0.53;;;16.10;36.90;;;;;;10504897;28;20322;-70
2022/09/27 15:26:42;;;;;;;1.10;0.70;;;16.00;36.60;;;;;;10505608;28;20246;-71
2022/09/27 15:31:45;;;;;;;1.00;0.60;;;15.70;36.50;;;;;;10508572;28;20262;-70
2022/09/27 15:36:54;;;;;;;0.80;0.50;;;15.40;37.00;;;;;;10504244;28;20220;-72
2022/09/27 15:42:05;;;;;;;0.70;0.70;;;15.00;38.00;;;;;;10506141;28;20368;-70
2022/09/27 15:47:39;;;;;;;1.17;0.80;;;14.60;38.30;;;;;;10507961;28;20223;-70
2022/09/27 15:52:46;;;;;;;2.17;1.20;;;14.30;39.00;;;;;;10503474;28;20220;-70
2022/09/27 15:57:55;;;;;;;2.30;1.90;;;14.20;39.40;;;;;;10504754;28;20216;-70
2022/09/27 16:02:58;;;;;;;1.80;1.70;;;14.20;39.80;;;;;;10510867;28;20216;-70
2022/09/27 16:08:01;;;;;;;1.87;1.60;;;14.10;39.40;;;;;;10503766;28;20223;-70
2022/09/27 16:13:06;;;;;;;1.20;1.10;;;14.10;39.80;;;;;;10505574;28;20618;-70
2022/09/27 16:18:10;;;;;;;1.60;1.40;;;14.10;39.80;;;;;;10504264;28;20226;-70
2022/09/27 16:23:14;;;;;;;1.83;1.50;;;14.20;39.80;;;;;;10505562;28;20234;-69
2022/09/27 16:28:19;;;;;;;1.50;1.40;;;14.10;39.60;;;;;;10506361;28;20232;-69
2022/09/27 16:33:22;;;;;;;1.20;1.20;;;14.10;39.90;;;;;;10503881;28;20232;-69
2022/09/27 16:38:26;;;;;;;3.20;2.90;;;14.10;39.70;;;;;;10503947;28;20227;-69
2022/09/27 16:43:31;;;;;;;2.40;2.20;;;14.00;39.60;;;;;;10502461;28;20224;-69
2022/09/27 16:48:34;;;;;;;3.77;3.47;;;13.90;39.90;;;;;;10503942;28;20231;-69
2022/09/27 16:53:37;;;;;;;9.30;8.50;;;13.90;40.00;;;;;;10504440;28;20258;-69
2022/09/27 16:58:41;;;;;;;3.23;2.93;;;13.80;40.00;;;;;;10507359;28;20243;-70
2022/09/27 17:03:49;;;;;;;2.00;1.90;;;13.80;40.20;;;;;;10496350;28;20216;-70
2022/09/27 17:08:57;;;;;;;2.40;1.70;;;13.80;40.60;;;;;;10503856;28;20224;-70
2022/09/27 17:14:02;;;;;;;1.67;1.57;;;13.80;40.20;;;;;;10506476;28;20220;-70
2022/09/27 17:19:05;;;;;;;1.37;1.27;;;13.80;40.70;;;;;;10504085;28;20604;-70
2022/09/27 17:24:09;;;;;;;0.90;0.90;;;13.90;40.60;;;;;;10505928;28;20228;-70
2022/09/27 17:29:14;;;;;;;1.10;0.80;;;13.90;40.20;;;;;;10507082;28;20231;-70
2022/09/27 17:34:17;;;;;;;1.50;1.40;;;13.90;40.40;;;;;;10503609;28;20778;-70
2022/09/27 17:39:22;;;;;;;1.97;1.87;;;13.90;40.20;;;;;;10501728;28;20232;-70
2022/09/27 17:44:26;;;;;;;2.60;2.40;;;13.90;40.20;;;;;;10500635;28;20232;-70
2022/09/27 17:54:47;;;;;;;1.93;1.50;;;13.70;40.00;;;;;;10475557;28;20269;-69
2022/09/27 17:59:52;;;;;;;1.20;1.07;;;13.60;40.30;;;;;;10499656;28;20265;-69
2022/09/27 18:04:55;;;;;;;1.00;0.90;;;13.50;40.70;;;;;;10498384;28;20220;-70
2022/09/27 18:09:58;;;;;;;1.10;1.00;;;13.30;40.40;;;;;;10500858;28;20225;-69
2022/09/27 18:15:04;;;;;;;0.90;0.90;;;13.20;40.40;;;;;;10501692;28;20246;-72
2022/09/27 18:20:08;;;;;;;0.67;0.60;;;13.10;40.60;;;;;;10503671;28;20235;-69
2022/09/27 18:25:11;;;;;;;2.03;0.80;;;13.00;40.40;;;;;;10500029;28;20236;-69
2022/09/27 18:30:16;;;;;;;0.70;0.70;;;13.00;40.70;;;;;;10506077;28;20228;-69
2022/09/27 18:35:22;;;;;;;0.90;0.90;;;12.90;40.80;;;;;;10508516;28;20224;-69
2022/09/27 18:40:25;;;;;;;0.87;0.80;;;12.80;40.90;;;;;;10506736;28;20231;-69
2022/09/27 18:45:50;;;;;;;1.37;1.27;;;12.80;40.90;;;;;;10508651;28;20216;-69
2022/09/27 18:50:53;;;;;;;0.87;0.87;;;12.80;41.00;;;;;;10501355;28;20594;-69
2022/09/27 18:56:01;;;;;;;1.13;1.00;;;12.80;40.70;;;;;;10510288;28;20230;-69
2022/09/27 19:01:07;;;;;;;1.10;1.00;;;12.80;40.80;;;;;;10497152;28;20692;-69
2022/09/27 19:06:12;;;;;;;1.10;0.83;;;12.80;40.80;;;;;;10508098;28;20242;-69
2022/09/27 19:11:17;;;;;;;0.80;0.80;;;12.70;40.90;;;;;;10509442;28;20228;-69
2022/09/27 19:16:23;;;;;;;0.90;0.90;;;12.70;41.00;;;;;;10507439;28;21101;-69
2022/09/27 19:21:28;;;;;;;0.73;0.73;;;12.60;41.00;;;;;;10505924;28;20712;-69
2022/09/27 19:26:32;;;;;;;0.70;0.70;;;12.70;41.00;;;;;;10503557;28;20228;-69
2022/09/27 19:31:36;;;;;;;1.23;0.87;;;12.70;41.00;;;;;;10499702;28;20224;-69
2022/09/27 19:36:39;;;;;;;0.80;0.80;;;12.70;41.00;;;;;;10511806;28;20670;-74
2022/09/27 19:41:43;;;;;;;0.90;0.80;;;12.70;41.10;;;;;;10502288;28;20232;-73
2022/09/27 19:46:47;;;;;;;1.07;1.07;;;12.70;41.10;;;;;;10504061;28;20285;-72
2022/09/27 19:51:51;;;;;;;0.90;0.90;;;12.70;41.10;;;;;;10504874;28;20787;-72
2022/09/27 19:56:54;;;;;;;2.07;1.20;;;12.80;41.10;;;;;;10505085;28;20228;-72
2022/09/27 20:01:58;;;;;;;1.00;0.90;;;12.80;41.30;;;;;;10512662;28;20227;-72
2022/09/27 20:07:02;;;;;;;1.00;0.90;;;12.80;41.20;;;;;;10508785;28;20258;-72
2022/09/27 20:12:06;;;;;;;0.80;0.80;;;12.90;41.20;;;;;;10507932;28;20228;-72
2022/09/27 20:17:12;;;;;;;1.60;0.90;;;12.80;41.50;;;;;;10499603;28;20219;-72
2022/09/27 20:22:15;;;;;;;0.70;0.70;;;12.80;42.60;;;;;;10505236;28;20240;-72
2022/09/27 20:27:19;;;;;;;3.37;0.90;;;12.80;41.50;;;;;;10507838;28;20228;-72
2022/09/27 20:32:23;;;;;;;1.47;1.00;;;12.70;41.70;;;;;;10501832;28;20603;-72
2022/09/27 20:37:31;;;;;;;0.97;0.90;;;12.80;42.10;;;;;;10505510;28;20232;-72
2022/09/27 20:42:34;;;;;;;1.53;1.10;;;12.80;42.00;;;;;;10508199;28;20258;-72
2022/09/27 20:47:38;;;;;;;1.03;1.00;;;12.90;41.90;;;;;;10503160;28;20227;-72
2022/09/27 20:52:41;;;;;;;1.17;0.80;;;12.90;42.50;;;;;;10508942;28;20228;-72
2022/09/27 20:57:44;;;;;;;1.07;0.90;;;13.00;41.80;;;;;;10503312;28;20220;-72
2022/09/27 21:03:01;;;;;;;0.87;0.77;;;12.90;41.80;;;;;;10506763;28;20238;-72
2022/09/27 21:08:04;;;;;;;1.47;0.90;;;12.90;42.20;;;;;;10503886;28;20243;-72
2022/09/27 21:13:07;;;;;;;0.80;0.80;;;12.90;41.80;;;;;;10500576;28;20638;-72
2022/09/27 21:18:11;;;;;;;1.10;0.77;;;12.80;41.90;;;;;;10506053;28;20219;-72
2022/09/27 21:23:15;;;;;;;1.20;1.07;;;12.80;42.40;;;;;;10504710;28;20228;-72
2022/09/27 21:28:18;;;;;;;0.97;0.90;;;12.70;42.30;;;;;;10505461;28;20599;-72
2022/09/27 21:33:23;;;;;;;1.33;1.10;;;12.70;42.30;;;;;;10506883;28;21708;-72
2022/09/27 21:38:26;;;;;;;0.90;0.90;;;12.70;42.30;;;;;;10500406;28;20224;-72
2022/09/27 21:43:31;;;;;;;0.97;0.80;;;12.70;42.30;;;;;;10505932;28;20224;-73
2022/09/27 21:48:37;;;;;;;0.83;0.83;;;12.60;42.20;;;;;;10507869;28;20243;-72
2022/09/27 21:53:43;;;;;;;1.27;0.70;;;12.60;42.20;;;;;;10505956;28;20228;-72
2022/09/27 21:58:46;;;;;;;0.70;0.70;;;12.50;42.10;;;;;;10499989;28;20270;-72
2022/09/27 22:03:53;;;;;;;2.30;0.80;;;12.40;42.00;;;;;;10506331;28;20215;-72
2022/09/27 22:08:57;;;;;;;0.80;0.80;;;12.30;42.60;;;;;;10508792;28;20228;-72
2022/09/27 22:14:00;;;;;;;0.80;0.80;;;12.20;41.90;;;;;;10512118;28;20224;-72
2022/09/27 22:19:05;;;;;;;1.27;0.70;;;12.20;41.90;;;;;;10508605;28;20232;-72
2022/09/27 22:24:12;;;;;;;1.17;0.70;;;12.10;42.00;;;;;;10512051;28;20611;-72
2022/09/27 22:29:15;;;;;;;0.63;0.63;;;12.00;42.40;;;;;;10511089;28;20243;-72
2022/09/27 22:34:27;;;;;;;0.60;0.60;;;11.90;42.10;;;;;;10511793;28;21237;-72
2022/09/27 22:39:31;;;;;;;0.70;0.70;;;11.80;42.50;;;;;;10512877;28;20255;-72
2022/09/27 22:44:34;;;;;;;0.63;0.63;;;11.80;42.30;;;;;;10506125;28;20654;-72
2022/09/27 22:49:38;;;;;;;0.60;0.60;;;11.70;42.20;;;;;;10510055;28;20217;-72
2022/09/27 22:54:41;;;;;;;0.70;0.70;;;11.70;42.40;;;;;;10506399;28;20227;-72
2022/09/27 22:59:44;;;;;;;1.30;0.67;;;11.70;42.30;;;;;;10506029;28;20247;-72
2022/09/27 23:04:49;;;;;;;0.73;0.60;;;11.70;42.30;;;;;;10509649;28;20700;-72
2022/09/27 23:09:52;;;;;;;0.70;0.70;;;11.70;42.60;;;;;;10512555;28;20220;-72
2022/09/27 23:14:56;;;;;;;0.70;0.70;;;11.70;42.50;;;;;;10512124;28;20216;-72
2022/09/27 23:20:01;;;;;;;2.53;0.60;;;11.70;42.50;;;;;;10510911;28;20240;-71
2022/09/27 23:25:05;;;;;;;0.60;0.60;;;11.70;42.80;;;;;;10505141;28;20231;-72
2022/09/27 23:30:09;;;;;;;0.80;0.70;;;11.60;42.50;;;;;;10510029;28;20231;-72
2022/09/27 23:35:14;;;;;;;1.03;0.70;;;11.70;42.70;;;;;;10513802;28;20231;-72
2022/09/27 23:40:17;;;;;;;0.87;0.70;;;11.70;43.00;;;;;;10510783;28;20278;-72
2022/09/27 23:45:20;;;;;;;0.60;0.60;;;11.80;42.90;;;;;;10504500;28;20243;-73
2022/09/27 23:50:25;;;;;;;0.60;0.60;;;11.90;42.80;;;;;;10506079;28;20224;-72
2022/09/27 23:55:28;;;;;;;0.70;0.70;;;12.00;42.90;;;;;;10512301;28;20230;-72
